createdAt,value
2023-01-17T00:02:25.037Z,83.05
2023-01-17T00:04:53.407Z,70.63
2023-01-17T00:07:22.879Z,78.75
2023-01-17T00:09:51.112Z,87.40
2023-01-17T00:12:20.712Z,80.22
2023-01-17T00:14:49.365Z,77.03
2023-01-17T00:17:17.539Z,59.22
2023-01-17T00:19:45.811Z,67.30
2023-01-17T00:22:34.141Z,53.88
2023-01-17T00:25:02.500Z,70.10
2023-01-17T00:27:31.804Z,83.05
2023-01-17T00:29:59.955Z,89.28
2023-01-17T00:32:28.896Z,72.95
2023-01-17T00:34:57.432Z,85.38
2023-01-17T00:37:25.522Z,85.68
2023-01-17T00:39:54.223Z,83.47
2023-01-17T00:42:22.471Z,95.38
2023-01-17T00:44:50.735Z,81.68
2023-01-17T00:47:20.136Z,88.15
2023-01-17T00:49:48.440Z,94.65
2023-01-17T00:52:16.527Z,81.55
2023-01-17T00:54:44.863Z,88.53
2023-01-17T00:57:14.268Z,78.28
2023-01-17T00:59:42.597Z,89.88
2023-01-17T01:02:11.604Z,106.38
2023-01-17T01:04:39.877Z,83.65
2023-01-17T01:07:08.038Z,88.32
2023-01-17T01:09:36.224Z,76.75
2023-01-17T01:12:04.615Z,89.00
2023-01-17T01:14:32.852Z,83.78
2023-01-17T01:17:01.060Z,88.07
2023-01-17T01:19:29.519Z,95.45
2023-01-17T01:21:57.684Z,94.45
2023-01-17T01:24:26.124Z,95.50
2023-01-17T01:26:54.160Z,82.88
2023-01-17T01:29:22.464Z,79.90
2023-01-17T01:31:50.713Z,80.70
2023-01-17T01:34:19.400Z,79.18
2023-01-17T01:36:47.636Z,69.47
2023-01-17T01:39:15.975Z,90.25
2023-01-17T01:41:44.008Z,80.45
2023-01-17T01:44:46.613Z,79.75
2023-01-17T01:49:45.698Z,78.97
2023-01-17T01:52:15.288Z,83.32
2023-01-17T01:55:08.838Z,77.07
2023-01-17T01:57:43.003Z,75.22
2023-01-17T02:00:27.718Z,86.65
2023-01-17T02:02:58.637Z,89.00
2023-01-17T02:05:28.825Z,92.50
2023-01-17T02:07:57.168Z,81.95
2023-01-17T02:10:25.277Z,84.15
2023-01-17T02:12:55.633Z,101.53
2023-01-17T02:15:30.926Z,98.28
2023-01-17T02:18:03.355Z,98.25
2023-01-17T02:20:49.844Z,72.93
2023-01-17T02:23:39.706Z,75.35
2023-01-17T02:26:38.868Z,80.57
2023-01-17T02:29:19.311Z,98.35
2023-01-17T02:32:05.237Z,90.32
2023-01-17T02:34:59.456Z,69.72
2023-01-17T02:37:42.191Z,79.35
2023-01-17T02:40:40.732Z,79.85
2023-01-17T02:43:14.640Z,102.38
2023-01-17T02:45:43.513Z,96.47
2023-01-17T02:48:14.942Z,86.07
2023-01-17T02:51:12.369Z,96.70
2023-01-17T02:53:58.605Z,124.85
2023-01-17T02:56:59.372Z,115.55
2023-01-17T02:59:37.827Z,100.78
2023-01-17T03:02:22.560Z,108.22
2023-01-17T03:04:59.218Z,102.43
2023-01-17T03:07:29.773Z,79.35
2023-01-17T03:10:02.090Z,81.07
2023-01-17T03:12:32.673Z,87.20
2023-01-17T03:15:00.872Z,65.53
2023-01-17T03:17:33.899Z,64.93
2023-01-17T03:20:02.296Z,57.22
2023-01-17T03:22:30.369Z,60.58
2023-01-17T03:24:58.644Z,54.38
2023-01-17T03:27:26.979Z,70.72
2023-01-17T03:29:55.152Z,74.43
2023-01-17T03:32:23.546Z,72.93
2023-01-17T03:34:51.725Z,67.78
2023-01-17T03:37:20.076Z,74.97
2023-01-17T03:39:48.320Z,64.57
2023-01-17T03:42:16.583Z,63.13
2023-01-17T03:44:44.753Z,61.40
2023-01-17T03:47:13.153Z,56.08
2023-01-17T03:49:41.694Z,53.92
2023-01-17T03:52:09.921Z,47.38
2023-01-17T03:54:38.254Z,60.72
2023-01-17T03:57:06.518Z,47.45
2023-01-17T03:59:34.987Z,67.28
2023-01-17T04:02:03.413Z,30.33
2023-01-17T04:04:31.760Z,44.22
2023-01-17T04:07:00.023Z,42.95
2023-01-17T04:09:28.231Z,49.47
2023-01-17T04:11:56.665Z,47.95
2023-01-17T04:14:24.811Z,47.55
2023-01-17T04:16:52.999Z,48.75
2023-01-17T04:19:21.424Z,46.08
2023-01-17T04:21:49.557Z,41.67
2023-01-17T04:24:18.126Z,39.97
2023-01-17T04:26:46.509Z,49.05
2023-01-17T04:29:14.671Z,39.60
2023-01-17T04:31:42.807Z,39.72
2023-01-17T04:34:11.198Z,38.78
2023-01-17T04:36:39.342Z,39.20
2023-01-17T04:39:08.080Z,41.28
2023-01-17T04:41:36.805Z,36.65
2023-01-17T04:44:05.088Z,43.95
2023-01-17T04:46:33.411Z,40.05
2023-01-17T04:49:01.646Z,60.13
2023-01-17T04:51:29.790Z,39.28
2023-01-17T04:53:58.092Z,36.28
2023-01-17T04:56:26.320Z,31.75
2023-01-17T04:58:56.759Z,44.40
2023-01-17T05:01:25.386Z,43.58
2023-01-17T05:03:53.706Z,42.05
2023-01-17T05:06:21.989Z,38.75
2023-01-17T05:08:50.201Z,33.05
2023-01-17T05:11:18.372Z,34.85
2023-01-17T05:13:51.688Z,42.63
2023-01-17T05:16:20.180Z,43.33
2023-01-17T05:18:51.163Z,43.55
2023-01-17T05:21:20.176Z,34.25
2023-01-17T05:23:48.584Z,43.88
2023-01-17T05:26:16.941Z,34.08
2023-01-17T05:28:45.240Z,37.88
2023-01-17T05:31:13.652Z,45.75
2023-01-17T05:33:41.881Z,50.08
2023-01-17T05:36:10.555Z,42.15
2023-01-17T05:38:38.639Z,34.08
2023-01-17T05:41:06.976Z,42.58
2023-01-17T05:43:35.184Z,48.30
2023-01-17T05:46:03.382Z,40.70
2023-01-17T05:48:31.806Z,45.72
2023-01-17T05:50:59.897Z,47.78
2023-01-17T05:53:28.460Z,41.05
2023-01-17T05:55:56.551Z,49.55
2023-01-17T05:58:24.834Z,42.38
2023-01-17T06:00:55.771Z,45.63
2023-01-17T06:03:24.091Z,30.88
2023-01-17T06:05:53.681Z,51.72
2023-01-17T06:08:22.013Z,39.83
2023-01-17T06:10:50.622Z,40.35
2023-01-17T06:13:18.861Z,42.20
2023-01-17T06:15:47.173Z,43.00
2023-01-17T06:18:17.597Z,37.45
2023-01-17T06:20:46.074Z,42.70
2023-01-17T06:23:15.655Z,44.70
2023-01-17T06:25:48.151Z,35.28
2023-01-17T06:28:19.218Z,33.42
2023-01-17T06:30:47.976Z,30.77
2023-01-17T06:33:16.671Z,35.72
2023-01-17T06:35:49.741Z,32.42
2023-01-17T06:38:18.885Z,37.83
2023-01-17T06:40:47.080Z,37.65
2023-01-17T06:43:15.678Z,31.55
2023-01-17T06:45:43.892Z,42.20
2023-01-17T06:48:12.217Z,37.00
2023-01-17T06:50:40.492Z,32.22
2023-01-17T06:53:08.634Z,44.00
2023-01-17T06:55:39.193Z,45.47
2023-01-17T06:58:09.145Z,33.42
2023-01-17T07:00:40.375Z,48.90
2023-01-17T07:03:19.123Z,54.50
2023-01-17T07:05:47.661Z,41.67
2023-01-17T07:08:16.255Z,45.97
2023-01-17T07:10:46.009Z,32.45
2023-01-17T07:13:14.861Z,48.40
2023-01-17T07:15:43.271Z,43.80
2023-01-17T07:18:11.466Z,48.72
2023-01-17T07:20:39.582Z,37.53
2023-01-17T07:23:07.893Z,45.13
2023-01-17T07:25:36.249Z,46.13
2023-01-17T07:28:04.764Z,45.80
2023-01-17T07:30:32.893Z,43.05
2023-01-17T07:33:01.395Z,35.28
2023-01-17T07:35:29.919Z,39.40
2023-01-17T07:37:58.150Z,40.97
2023-01-17T07:40:26.566Z,55.53
2023-01-17T07:43:00.914Z,42.65
2023-01-17T07:45:29.320Z,51.90
2023-01-17T07:48:00.239Z,38.30
2023-01-17T07:50:28.585Z,41.70
2023-01-17T07:52:56.797Z,49.78
2023-01-17T07:55:25.009Z,44.58
2023-01-17T07:57:53.403Z,40.38
2023-01-17T08:00:22.189Z,58.28
2023-01-17T08:02:50.824Z,65.25
2023-01-17T08:05:19.079Z,58.60
2023-01-17T08:07:47.448Z,52.45
2023-01-17T08:10:16.199Z,52.05
2023-01-17T08:12:49.670Z,61.35
2023-01-17T08:15:18.774Z,53.03
2023-01-17T08:17:51.053Z,56.45
2023-01-17T08:20:19.737Z,55.92
2023-01-17T08:22:48.129Z,44.45
2023-01-17T08:25:16.447Z,54.20
2023-01-17T08:27:44.635Z,38.75
2023-01-17T08:30:12.981Z,33.78
2023-01-17T08:32:41.439Z,36.10
2023-01-17T08:35:10.256Z,34.95
2023-01-17T08:37:38.580Z,40.30
2023-01-17T08:40:07.769Z,49.10
2023-01-17T08:42:36.774Z,48.30
2023-01-17T08:45:09.896Z,28.38
2023-01-17T08:47:38.549Z,36.08
2023-01-17T08:50:07.614Z,33.70
2023-01-17T08:52:36.325Z,25.33
2023-01-17T08:55:05.903Z,40.13
2023-01-17T08:57:34.293Z,35.70
2023-01-17T09:00:02.563Z,37.83
2023-01-17T09:02:30.751Z,50.88
2023-01-17T09:04:59.052Z,33.95
2023-01-17T09:07:27.638Z,42.42
2023-01-17T09:09:55.906Z,34.05
2023-01-17T09:12:24.211Z,39.53
2023-01-17T09:14:52.439Z,29.65
2023-01-17T09:17:20.662Z,32.40
2023-01-17T09:19:48.932Z,38.90
2023-01-17T09:22:17.158Z,45.85
2023-01-17T09:24:45.395Z,30.27
2023-01-17T09:27:13.626Z,38.28
2023-01-17T09:29:41.821Z,34.42
2023-01-17T09:32:10.309Z,35.20
2023-01-17T09:34:38.500Z,54.67
2023-01-17T09:37:06.728Z,30.15
2023-01-17T09:39:34.964Z,24.98
2023-01-17T09:42:27.232Z,38.83
2023-01-17T09:44:56.488Z,42.83
2023-01-17T09:47:47.992Z,43.60
2023-01-17T09:50:31.141Z,27.13
2023-01-17T09:53:06.072Z,37.00
2023-01-17T09:56:14.949Z,34.85
2023-01-17T09:58:47.054Z,49.92
2023-01-17T10:01:33.893Z,36.53
2023-01-17T10:04:26.800Z,28.65
2023-01-17T10:07:16.502Z,41.47
2023-01-17T10:09:58.171Z,38.47
2023-01-17T10:12:51.047Z,33.95
2023-01-17T10:15:44.733Z,38.10
2023-01-17T10:18:40.763Z,32.65
2023-01-17T10:21:20.186Z,42.95
2023-01-17T10:24:05.981Z,36.50
2023-01-17T10:26:35.711Z,40.20
2023-01-17T10:29:10.128Z,34.67
2023-01-17T10:31:51.692Z,39.42
2023-01-17T10:34:26.137Z,28.90
2023-01-17T10:37:01.360Z,34.70
2023-01-17T10:39:31.754Z,26.92
2023-01-17T10:42:52.165Z,35.95
2023-01-17T10:45:26.557Z,29.85
2023-01-17T10:48:20.197Z,34.45
2023-01-17T10:50:57.146Z,23.05
2023-01-17T10:53:37.798Z,46.92
2023-01-17T10:56:07.554Z,25.90
2023-01-17T10:58:35.681Z,39.47
2023-01-17T11:01:16.180Z,31.23
2023-01-17T11:03:48.903Z,35.55
2023-01-17T11:06:26.110Z,31.10
2023-01-17T11:09:00.286Z,29.05
2023-01-17T11:11:34.816Z,30.80
2023-01-17T11:14:08.359Z,42.75
2023-01-17T11:16:36.950Z,41.08
2023-01-17T11:19:31.887Z,27.70
2023-01-17T11:22:04.022Z,48.95
2023-01-17T11:24:42.304Z,41.17
2023-01-17T11:27:24.656Z,34.58
2023-01-17T11:30:19.218Z,30.33
2023-01-17T11:33:04.998Z,35.95
2023-01-17T11:35:35.953Z,29.80
2023-01-17T11:38:07.011Z,32.10
2023-01-17T11:40:53.555Z,31.48
2023-01-17T11:43:26.664Z,30.40
2023-01-17T11:46:07.479Z,37.92
2023-01-17T11:48:40.044Z,25.88
2023-01-17T11:51:39.693Z,29.13
2023-01-17T11:54:14.145Z,35.50
2023-01-17T11:56:43.512Z,24.67
2023-01-17T11:59:25.368Z,37.92
2023-01-17T12:04:47.641Z,40.60
2023-01-17T12:07:18.755Z,31.88
2023-01-17T12:10:02.696Z,23.55
2023-01-17T12:13:04.903Z,22.35
2023-01-17T12:15:53.410Z,36.20
2023-01-17T12:18:47.737Z,37.63
2023-01-17T12:21:21.771Z,32.55
2023-01-17T12:24:02.117Z,36.05
2023-01-17T12:26:40.887Z,33.88
2023-01-17T12:29:28.682Z,40.90
2023-01-17T12:32:15.862Z,45.33
2023-01-17T12:34:44.187Z,48.85
2023-01-17T12:37:22.761Z,37.50
2023-01-17T12:40:08.117Z,28.50
2023-01-17T12:42:43.084Z,29.13
2023-01-17T12:45:19.204Z,30.13
2023-01-17T12:47:52.635Z,22.70
2023-01-17T12:50:34.840Z,26.17
2023-01-17T12:53:22.428Z,36.75
2023-01-17T12:56:01.248Z,26.00
2023-01-17T12:58:41.911Z,36.83
2023-01-17T13:01:22.597Z,30.80
2023-01-17T13:04:17.182Z,28.60
2023-01-17T13:07:10.603Z,24.42
2023-01-17T13:10:04.894Z,24.38
2023-01-17T13:12:35.164Z,35.97
2023-01-17T13:15:03.477Z,25.20
2023-01-17T13:17:47.635Z,34.38
2023-01-17T13:20:23.575Z,45.95
2023-01-17T13:22:52.741Z,51.75
2023-01-17T13:25:47.014Z,34.08
2023-01-17T13:28:42.993Z,33.65
2023-01-17T13:31:48.557Z,18.27
2023-01-17T13:34:49.338Z,37.55
2023-01-17T13:37:37.227Z,38.10
2023-01-17T13:40:27.959Z,38.30
2023-01-17T13:42:59.455Z,25.55
2023-01-17T13:45:29.418Z,32.35
2023-01-17T13:48:13.140Z,26.92
2023-01-17T13:50:41.479Z,28.75
2023-01-17T13:53:34.531Z,30.27
2023-01-17T13:56:23.561Z,39.40
2023-01-17T13:58:51.873Z,18.83
2023-01-17T14:01:23.108Z,25.80
2023-01-17T14:03:51.527Z,27.83
2023-01-17T14:06:39.393Z,33.30
2023-01-17T14:09:13.516Z,37.28
2023-01-17T14:12:09.817Z,33.58
2023-01-17T14:14:41.097Z,28.90
2023-01-17T14:17:46.713Z,33.72
2023-01-17T14:20:14.899Z,29.30
2023-01-17T14:22:52.849Z,29.13
2023-01-17T14:25:26.020Z,32.90
2023-01-17T14:27:58.971Z,31.13
2023-01-17T14:30:28.592Z,34.15
2023-01-17T14:32:59.845Z,39.60
2023-01-17T14:35:33.694Z,28.85
2023-01-17T14:38:02.681Z,31.52
2023-01-17T14:40:33.895Z,37.42
2023-01-17T14:43:06.849Z,36.85
2023-01-17T14:45:36.539Z,34.75
2023-01-17T14:48:26.705Z,35.47
2023-01-17T14:50:57.002Z,32.28
2023-01-17T14:53:29.664Z,24.42
2023-01-17T14:56:02.982Z,30.13
2023-01-17T14:58:33.611Z,22.40
2023-01-17T15:01:18.205Z,40.70
2023-01-17T15:03:54.788Z,26.77
2023-01-17T15:06:42.146Z,38.22
2023-01-17T15:09:23.099Z,34.33
2023-01-17T15:11:52.463Z,34.77
2023-01-17T15:14:42.297Z,43.80
2023-01-17T15:17:17.615Z,43.53
2023-01-17T15:19:50.897Z,24.92
2023-01-17T15:22:20.375Z,27.23
2023-01-17T15:24:49.668Z,33.85
2023-01-17T15:27:18.312Z,23.10
2023-01-17T15:29:48.172Z,117.00
2023-01-17T15:32:25.314Z,36.30
2023-01-17T15:34:53.857Z,39.30
2023-01-17T15:37:39.197Z,39.40
2023-01-17T15:40:20.143Z,26.63
2023-01-17T15:43:00.303Z,31.83
2023-01-17T15:45:30.865Z,109.10
2023-01-17T15:48:20.327Z,57.85
2023-01-17T15:50:48.644Z,59.85
2023-01-17T15:53:32.066Z,35.28
2023-01-17T15:56:01.320Z,39.35
2023-01-17T15:58:30.963Z,36.83
2023-01-17T16:00:59.819Z,26.27
2023-01-17T16:03:30.619Z,28.13
2023-01-17T16:06:00.994Z,30.40
2023-01-17T16:08:39.059Z,24.08
2023-01-17T16:11:08.837Z,28.17
2023-01-17T16:13:39.183Z,29.40
2023-01-17T16:16:33.852Z,28.50
2023-01-17T16:19:03.399Z,41.60
2023-01-17T16:21:32.501Z,35.72
2023-01-17T16:24:02.069Z,34.05
2023-01-17T16:26:30.576Z,34.17
2023-01-17T16:28:58.995Z,33.65
2023-01-17T16:31:27.413Z,37.75
2023-01-17T16:33:55.704Z,36.75
2023-01-17T16:36:24.002Z,40.33
2023-01-17T16:38:52.814Z,32.35
2023-01-17T16:41:21.459Z,35.97
2023-01-17T16:43:59.610Z,22.15
2023-01-17T16:46:29.001Z,48.92
2023-01-17T16:48:59.093Z,36.72
2023-01-17T16:51:28.248Z,51.08
2023-01-17T16:53:56.641Z,47.45
2023-01-17T16:56:25.097Z,85.45
2023-01-17T16:58:53.370Z,32.78
2023-01-17T17:01:21.948Z,36.92
2023-01-17T17:03:50.684Z,40.80
2023-01-17T17:06:19.552Z,30.90
2023-01-17T17:08:47.978Z,30.80
2023-01-17T17:11:21.530Z,55.28
2023-01-17T17:13:51.552Z,47.25
2023-01-17T17:16:28.978Z,37.70
2023-01-17T17:19:02.806Z,29.40
2023-01-17T17:21:31.933Z,35.35
2023-01-17T17:24:01.940Z,48.42
2023-01-17T17:26:37.872Z,28.95
2023-01-17T17:29:07.978Z,33.95
2023-01-17T17:31:37.096Z,31.75
2023-01-17T17:34:06.617Z,31.33
2023-01-17T17:36:36.057Z,37.63
2023-01-17T17:39:06.461Z,49.38
2023-01-17T17:41:36.630Z,39.50
2023-01-17T17:44:05.393Z,39.85
2023-01-17T17:46:33.940Z,37.22
2023-01-17T17:49:02.748Z,44.88
2023-01-17T17:51:36.469Z,56.72
2023-01-17T17:54:07.823Z,27.17
2023-01-17T17:56:37.696Z,30.17
2023-01-17T17:59:08.824Z,30.38
2023-01-17T18:01:37.347Z,50.90
2023-01-17T18:04:06.180Z,51.92
2023-01-17T18:06:35.163Z,47.65
2023-01-17T18:09:04.456Z,58.50
2023-01-17T18:11:33.202Z,48.38
2023-01-17T18:14:03.326Z,41.92
2023-01-17T18:16:36.970Z,52.28
2023-01-17T18:19:05.930Z,40.42
2023-01-17T18:21:38.841Z,54.83
2023-01-17T18:28:55.936Z,52.20
2023-01-17T18:31:25.749Z,51.58
2023-01-17T18:34:01.983Z,35.78
2023-01-17T18:36:30.478Z,42.67
2023-01-17T18:38:58.809Z,49.03
2023-01-17T18:41:31.248Z,55.13
2023-01-17T18:43:59.580Z,55.10
2023-01-17T18:46:28.002Z,57.70
2023-01-17T18:49:03.030Z,57.42
2023-01-17T18:51:32.881Z,54.45
2023-01-17T18:54:02.644Z,57.13
2023-01-17T18:56:32.666Z,70.65
2023-01-17T18:59:01.459Z,45.45
2023-01-17T19:01:34.320Z,43.67
2023-01-17T19:04:05.717Z,42.15
2023-01-17T19:06:37.099Z,48.30
2023-01-17T19:09:07.516Z,61.78
2023-01-17T19:11:36.514Z,73.60
2023-01-17T19:14:05.700Z,75.22
2023-01-17T19:16:37.017Z,49.13
2023-01-17T19:19:08.373Z,62.38
2023-01-17T19:21:36.787Z,75.75
2023-01-17T19:24:05.387Z,58.05
2023-01-17T19:26:33.688Z,126.57
2023-01-17T19:29:02.296Z,71.40
2023-01-17T19:31:32.547Z,68.63
2023-01-17T19:34:01.025Z,70.72
2023-01-17T19:36:33.287Z,92.95
2023-01-17T19:39:06.368Z,117.57
2023-01-17T19:41:37.280Z,108.80
2023-01-17T19:44:07.653Z,129.52
2023-01-17T19:46:37.418Z,110.03
2023-01-17T19:49:08.227Z,92.32
2023-01-17T19:51:37.135Z,116.88
2023-01-17T19:54:05.646Z,114.53
2023-01-17T19:56:34.275Z,179.23
2023-01-17T19:59:02.655Z,219.35
2023-01-17T20:01:33.677Z,219.90
2023-01-17T20:04:03.862Z,141.77
2023-01-17T20:06:35.111Z,132.63
2023-01-17T20:09:04.538Z,145.88
2023-01-17T20:11:32.942Z,159.05
2023-01-17T20:14:01.101Z,199.07
2023-01-17T20:16:31.973Z,216.43
2023-01-17T20:19:00.488Z,203.43
2023-01-17T20:21:30.138Z,186.57
2023-01-17T20:24:00.030Z,187.60
2023-01-17T20:26:30.392Z,188.27
2023-01-17T20:28:58.781Z,188.20
2023-01-17T20:31:28.289Z,206.45
2023-01-17T20:33:57.273Z,202.95
2023-01-17T20:36:26.992Z,162.82
2023-01-17T20:38:55.681Z,182.70
2023-01-17T20:41:25.336Z,195.38
2023-01-17T20:43:55.875Z,139.13
2023-01-17T20:46:27.833Z,155.43
2023-01-17T20:51:27.149Z,116.90
2023-01-17T20:53:58.190Z,120.18
2023-01-17T20:56:27.052Z,89.80
2023-01-17T20:58:55.637Z,83.32
2023-01-17T21:01:24.539Z,109.43
2023-01-17T21:03:53.287Z,122.65
2023-01-17T21:06:23.554Z,117.10
2023-01-17T21:08:52.918Z,143.35
2023-01-17T21:11:23.452Z,156.73
2023-01-17T21:13:52.457Z,165.05
2023-01-17T21:16:22.634Z,168.63
2023-01-17T21:18:52.044Z,248.63
2023-01-17T21:21:25.819Z,222.88
2023-01-17T21:23:56.216Z,228.10
2023-01-17T21:26:27.505Z,191.68
2023-01-17T21:28:56.666Z,140.85
2023-01-17T21:31:30.736Z,201.27
2023-01-17T21:34:01.342Z,201.57
2023-01-17T21:36:39.952Z,208.20
2023-01-17T21:39:14.097Z,258.50
2023-01-17T21:41:44.082Z,288.33
2023-01-17T21:44:23.637Z,267.63
2023-01-17T21:46:54.293Z,250.98
2023-01-17T21:49:23.736Z,278.17
2023-01-17T21:51:51.980Z,234.45
2023-01-17T21:54:21.611Z,175.10
2023-01-17T21:56:49.985Z,217.50
2023-01-17T21:59:18.236Z,179.27
2023-01-17T22:01:46.435Z,132.45
2023-01-17T22:04:14.829Z,155.75
2023-01-17T22:06:43.243Z,143.32
2023-01-17T22:09:11.410Z,104.65
2023-01-17T22:11:39.721Z,79.20
2023-01-17T22:14:07.890Z,87.68
2023-01-17T22:16:36.223Z,78.80
2023-01-17T22:19:04.580Z,71.82
2023-01-17T22:21:32.984Z,67.63
2023-01-17T22:24:01.489Z,122.93
2023-01-17T22:26:31.787Z,158.20
2023-01-17T22:29:03.143Z,135.25
2023-01-17T22:31:31.800Z,143.35
2023-01-17T22:34:02.233Z,138.95
2023-01-17T22:36:34.586Z,132.45
2023-01-17T22:39:03.113Z,112.38
2023-01-17T22:41:31.817Z,138.93
2023-01-17T22:44:01.995Z,143.15
2023-01-17T22:46:33.338Z,166.02
2023-01-17T22:49:01.614Z,109.40
2023-01-17T22:51:30.173Z,86.65
2023-01-17T22:54:00.905Z,73.55
2023-01-17T22:56:31.688Z,50.30
2023-01-17T22:59:00.982Z,52.75
2023-01-17T23:01:31.772Z,61.53
2023-01-17T23:04:02.607Z,60.75
2023-01-17T23:06:39.048Z,76.03
2023-01-17T23:09:10.911Z,81.90
2023-01-17T23:11:43.390Z,63.03
2023-01-17T23:14:20.808Z,67.80
2023-01-17T23:16:55.072Z,51.90
2023-01-17T23:19:23.814Z,37.92
2023-01-17T23:21:55.075Z,72.20
2023-01-17T23:24:23.479Z,133.30
2023-01-17T23:26:51.936Z,180.70
2023-01-17T23:29:20.220Z,221.38
2023-01-17T23:31:48.490Z,230.52
2023-01-17T23:34:16.676Z,236.30
2023-01-17T23:36:45.051Z,257.77
2023-01-17T23:39:13.322Z,220.80
2023-01-17T23:41:41.421Z,202.25
2023-01-17T23:44:09.708Z,154.43
2023-01-17T23:46:37.803Z,217.27
2023-01-17T23:49:06.003Z,118.72
2023-01-17T23:51:34.343Z,93.65
2023-01-17T23:54:02.560Z,69.50
2023-01-17T23:56:30.673Z,80.10
2023-01-17T23:58:58.941Z,78.72
